createdAt,value
2018-08-24T00:01:05.607Z,88.14
2018-08-24T00:06:00.333Z,86.32
2018-08-24T00:10:55.286Z,86.88
2018-08-24T00:15:50.044Z,88.84
2018-08-24T00:20:44.626Z,88.49
2018-08-24T00:25:39.329Z,88.97
2018-08-24T00:30:34.019Z,89.90
2018-08-24T00:35:28.872Z,88.20
2018-08-24T00:40:23.951Z,87.91
2018-08-24T00:45:18.697Z,86.83
2018-08-24T00:50:13.455Z,90.51
2018-08-24T00:55:08.199Z,91.73
2018-08-24T01:00:03.018Z,89.24
2018-08-24T01:04:57.949Z,92.51
2018-08-24T01:09:52.672Z,92.50
2018-08-24T01:14:48.667Z,93.63
2018-08-24T01:19:45.767Z,93.26
2018-08-24T01:24:40.520Z,93.82
2018-08-24T01:42:29.765Z,94.93
2018-08-24T01:47:33.639Z,94.25
2018-08-24T01:52:28.354Z,95.90
2018-08-24T01:57:23.062Z,96.65
2018-08-24T02:02:17.791Z,95.26
2018-08-24T02:07:12.595Z,94.08
2018-08-24T02:12:11.604Z,96.13
2018-08-24T02:17:10.534Z,93.75
2018-08-24T02:22:18.886Z,94.94
2018-08-24T02:27:13.709Z,95.65
2018-08-24T02:32:09.417Z,95.90
2018-08-24T02:37:04.239Z,95.41
2018-08-24T02:41:58.923Z,95.16
2018-08-24T02:46:53.633Z,95.73
2018-08-24T02:51:48.359Z,96.03
2018-08-24T02:56:43.148Z,95.17
2018-08-24T03:01:37.901Z,95.34
2018-08-24T03:06:32.779Z,95.80
2018-08-24T03:11:27.615Z,94.90
2018-08-24T03:16:22.604Z,94.82
2018-08-24T03:21:17.316Z,95.18
2018-08-24T03:26:11.999Z,94.56
2018-08-24T03:31:06.762Z,94.91
2018-08-24T03:36:01.538Z,94.03
2018-08-24T03:40:56.282Z,94.14
2018-08-24T03:45:51.024Z,94.48
2018-08-24T03:50:45.687Z,95.94
2018-08-24T03:55:40.467Z,94.67
2018-08-24T04:00:35.155Z,95.04
2018-08-24T04:05:29.853Z,93.61
2018-08-24T04:10:25.852Z,93.81
2018-08-24T04:15:20.537Z,95.20
2018-08-24T04:20:15.510Z,92.96
2018-08-24T04:25:10.510Z,93.98
2018-08-24T04:30:05.501Z,93.95
2018-08-24T04:35:00.285Z,93.52
2018-08-24T04:39:54.927Z,94.96
2018-08-24T04:44:49.567Z,94.53
2018-08-24T04:49:44.747Z,92.82
2018-08-24T04:54:39.492Z,91.55
2018-08-24T04:59:34.168Z,91.49
2018-08-24T05:04:29.779Z,93.18
2018-08-24T05:09:24.471Z,93.87
2018-08-24T05:14:19.456Z,92.98
2018-08-24T05:19:14.265Z,93.31
2018-08-24T05:24:08.912Z,92.92
2018-08-24T05:29:03.687Z,95.26
2018-08-24T05:33:58.553Z,95.21
2018-08-24T05:38:53.611Z,93.86
2018-08-24T05:43:48.438Z,95.58
2018-08-24T05:48:43.190Z,94.88
2018-08-24T05:53:37.849Z,95.39
2018-08-24T05:58:32.533Z,95.83
2018-08-24T06:03:27.281Z,97.00
2018-08-24T06:08:21.940Z,96.91
2018-08-24T06:13:19.007Z,96.55
2018-08-24T06:18:13.855Z,96.43
2018-08-24T06:23:08.566Z,97.73
2018-08-24T06:28:03.351Z,96.35
2018-08-24T06:32:58.051Z,96.64
2018-08-24T06:37:52.687Z,93.67
2018-08-24T06:42:47.387Z,92.25
2018-08-24T06:47:42.128Z,93.89
2018-08-24T06:52:36.723Z,93.26
2018-08-24T06:57:31.393Z,91.63
2018-08-24T07:02:29.030Z,91.35
2018-08-24T07:07:23.722Z,91.34
2018-08-24T07:12:18.496Z,89.52
2018-08-24T07:17:13.277Z,89.27
2018-08-24T07:22:08.199Z,88.22
2018-08-24T07:27:02.850Z,89.60
2018-08-24T07:31:57.534Z,89.34
2018-08-24T07:36:52.405Z,88.60
2018-08-24T07:41:47.172Z,85.91
2018-08-24T07:46:42.086Z,83.00
2018-08-24T07:51:37.524Z,85.44
2018-08-24T07:56:32.300Z,85.50
2018-08-24T08:01:29.160Z,84.27
2018-08-24T08:06:23.918Z,88.67
2018-08-24T08:11:18.804Z,90.14
2018-08-24T08:16:13.444Z,90.20
2018-08-24T08:21:11.379Z,89.68
2018-08-24T08:26:06.109Z,90.86
2018-08-24T08:31:01.063Z,87.30
2018-08-24T08:35:55.895Z,86.42
2018-08-24T08:40:50.833Z,86.98
2018-08-24T08:45:45.681Z,84.81
2018-08-24T08:50:40.589Z,83.56
2018-08-24T08:55:35.580Z,81.60
2018-08-24T09:00:30.691Z,82.94
2018-08-24T09:05:26.180Z,82.52
2018-08-24T09:10:22.079Z,78.53
2018-08-24T09:20:31.055Z,81.28
2018-08-24T09:25:31.098Z,81.22
2018-08-24T09:30:30.124Z,79.40
2018-08-24T09:35:26.674Z,76.74
2018-08-24T09:40:25.752Z,75.78
2018-08-24T09:45:20.579Z,72.87
2018-08-24T09:50:20.674Z,70.26
2018-08-24T09:55:16.416Z,69.34
2018-08-24T10:00:11.031Z,70.06
2018-08-24T10:05:11.248Z,69.86
2018-08-24T10:10:06.457Z,68.70
2018-08-24T10:15:01.185Z,68.66
2018-08-24T10:19:56.021Z,67.07
2018-08-24T10:24:50.851Z,68.38
2018-08-24T10:29:45.701Z,68.08
2018-08-24T10:34:40.404Z,66.46
2018-08-24T10:39:35.616Z,66.59
2018-08-24T10:44:30.732Z,64.93
2018-08-24T10:49:25.509Z,65.09
2018-08-24T10:54:20.431Z,64.11
2018-08-24T10:59:15.717Z,64.56
2018-08-24T11:04:10.771Z,60.67
2018-08-24T11:11:39.226Z,58.69
2018-08-24T11:16:34.004Z,60.55
2018-08-24T11:21:29.799Z,57.77
2018-08-24T11:26:24.588Z,58.87
2018-08-24T11:31:21.606Z,58.69
2018-08-24T11:36:16.737Z,55.43
2018-08-24T11:41:11.603Z,57.04
2018-08-24T11:46:07.504Z,56.63
2018-08-24T11:51:02.203Z,55.04
2018-08-24T11:55:56.872Z,56.96
2018-08-24T12:00:51.841Z,55.32
2018-08-24T12:05:47.353Z,56.35
2018-08-24T12:10:42.254Z,58.40
2018-08-24T12:15:37.198Z,62.33
2018-08-24T12:20:32.298Z,60.48
2018-08-24T12:25:27.477Z,58.70
2018-08-24T12:30:22.259Z,57.14
2018-08-24T12:35:17.103Z,56.73
2018-08-24T12:40:11.838Z,60.53
2018-08-24T12:45:06.620Z,57.96
2018-08-24T12:50:01.328Z,56.33
2018-08-24T12:54:56.044Z,57.98
2018-08-24T12:59:50.746Z,58.38
2018-08-24T13:04:45.429Z,58.58
2018-08-24T13:09:40.080Z,58.91
2018-08-24T13:14:34.833Z,58.72
2018-08-24T13:19:29.533Z,61.39
2018-08-24T13:24:24.256Z,57.62
2018-08-24T13:29:18.975Z,55.76
2018-08-24T13:34:13.607Z,55.31
2018-08-24T13:39:10.142Z,55.17
2018-08-24T13:44:06.082Z,54.73
2018-08-24T13:49:00.809Z,52.54
2018-08-24T13:53:55.825Z,54.10
2018-08-24T13:58:50.612Z,51.09
2018-08-24T14:03:45.428Z,50.27
2018-08-24T14:08:41.160Z,51.34
2018-08-24T14:13:35.877Z,53.47
2018-08-24T14:18:41.891Z,51.15
2018-08-24T14:23:36.540Z,52.04
2018-08-24T14:28:31.242Z,50.38
2018-08-24T14:33:25.996Z,50.24
2018-08-24T14:38:20.803Z,48.06
2018-08-24T14:43:15.537Z,50.16
2018-08-24T14:48:10.157Z,48.48
2018-08-24T14:53:05.582Z,49.70
2018-08-24T14:58:00.282Z,51.67
2018-08-24T15:02:55.123Z,53.94
2018-08-24T15:07:49.902Z,53.48
2018-08-24T15:12:44.719Z,55.27
2018-08-24T15:17:39.506Z,55.74
2018-08-24T15:22:34.679Z,56.27
2018-08-24T15:27:29.753Z,54.99
2018-08-24T15:32:24.476Z,55.76
2018-08-24T15:37:19.233Z,57.73
2018-08-24T15:42:13.938Z,55.51
2018-08-24T15:47:08.705Z,56.71
2018-08-24T15:52:03.624Z,59.18
2018-08-24T15:56:58.342Z,57.10
2018-08-24T16:01:53.031Z,59.39
2018-08-24T16:06:47.740Z,59.98
2018-08-24T16:11:42.353Z,59.36
2018-08-24T16:16:37.164Z,58.34
2018-08-24T16:21:31.877Z,59.17
2018-08-24T16:26:26.628Z,60.61
2018-08-24T16:31:21.301Z,61.96
2018-08-24T16:36:16.540Z,62.41
2018-08-24T16:41:11.364Z,62.18
2018-08-24T16:46:06.331Z,63.94
2018-08-24T16:51:01.156Z,62.33
2018-08-24T16:55:55.980Z,60.68
2018-08-24T17:00:50.993Z,61.21
2018-08-24T17:05:45.830Z,61.44
2018-08-24T17:10:40.653Z,64.00
2018-08-24T17:15:35.871Z,63.81
2018-08-24T17:20:30.522Z,59.77
2018-08-24T17:25:26.247Z,61.54
2018-08-24T17:30:21.113Z,61.18
2018-08-24T17:35:15.875Z,60.08
2018-08-24T17:40:10.824Z,60.67
2018-08-24T17:45:06.273Z,60.57
2018-08-24T17:50:01.061Z,60.63
2018-08-24T17:54:56.579Z,61.17
2018-08-24T17:59:54.976Z,60.54
2018-08-24T18:04:50.887Z,61.11
2018-08-24T18:09:45.697Z,62.82
2018-08-24T18:14:40.529Z,62.24
2018-08-24T18:19:35.252Z,59.43
2018-08-24T18:24:30.062Z,61.50
2018-08-24T18:29:24.896Z,61.52
2018-08-24T18:39:25.686Z,60.54
2018-08-24T18:44:20.501Z,58.42
2018-08-24T18:49:15.171Z,62.17
2018-08-24T18:54:09.917Z,60.45
2018-08-24T18:59:04.731Z,60.24
2018-08-24T19:03:59.467Z,61.87
2018-08-24T19:08:54.473Z,60.63
2018-08-24T19:13:49.465Z,60.41
2018-08-24T19:18:49.135Z,59.82
2018-08-24T19:23:43.885Z,60.71
2018-08-24T19:28:43.611Z,60.96
2018-08-24T19:33:38.379Z,60.13
2018-08-24T19:38:33.117Z,60.27
2018-08-24T19:43:27.908Z,61.89
2018-08-24T19:48:28.069Z,60.39
2018-08-24T19:53:22.800Z,61.26
2018-08-24T19:58:22.642Z,60.65
2018-08-24T20:03:17.462Z,62.28
2018-08-24T20:08:17.240Z,61.60
2018-08-24T20:13:12.088Z,59.26
2018-08-24T20:18:07.051Z,60.69
2018-08-24T20:23:01.912Z,59.15
2018-08-24T20:27:56.792Z,59.73
2018-08-24T20:32:51.573Z,60.05
2018-08-24T20:37:46.324Z,60.76
2018-08-24T20:42:41.132Z,59.49
2018-08-24T20:47:35.907Z,64.20
2018-08-24T20:52:30.634Z,64.31
2018-08-24T20:57:25.426Z,65.27
2018-08-24T21:02:20.466Z,64.98
2018-08-24T21:07:15.245Z,66.84
2018-08-24T21:12:10.040Z,66.75
2018-08-24T21:17:04.930Z,66.41
2018-08-24T21:21:59.678Z,67.29
2018-08-24T21:26:54.600Z,66.88
2018-08-24T21:31:49.681Z,67.44
2018-08-24T21:36:44.513Z,68.83
2018-08-24T21:41:39.768Z,69.41
2018-08-24T21:46:34.637Z,69.07
2018-08-24T21:51:29.425Z,69.73
2018-08-24T21:56:24.371Z,69.33
2018-08-24T22:01:19.180Z,72.60
2018-08-24T22:06:13.945Z,71.95
2018-08-24T22:11:08.760Z,70.60
2018-08-24T22:16:03.925Z,71.35
2018-08-24T22:20:58.780Z,69.90
2018-08-24T22:25:53.554Z,70.67
2018-08-24T22:30:48.383Z,70.96
2018-08-24T22:35:43.362Z,68.74
2018-08-24T22:40:38.219Z,69.85
2018-08-24T22:45:32.906Z,71.91
2018-08-24T22:50:27.750Z,69.80
2018-08-24T22:55:22.556Z,71.48
2018-08-24T23:00:17.370Z,70.20
2018-08-24T23:05:12.105Z,70.86
2018-08-24T23:10:07.099Z,71.12
2018-08-24T23:15:01.880Z,70.94
2018-08-24T23:19:56.769Z,72.83
2018-08-24T23:24:51.595Z,72.55
2018-08-24T23:29:46.400Z,71.37
2018-08-24T23:34:41.107Z,72.55
2018-08-24T23:39:35.783Z,72.02
2018-08-24T23:44:30.588Z,70.91
2018-08-24T23:49:25.459Z,69.96
2018-08-24T23:54:20.159Z,71.55
2018-08-24T23:59:15.120Z,71.31
